Time;durP1;ratioP1;P1;durP2;ratioP2;P2;SDS_P1;SDS_P2;PMS_P1;PMS_P2;Temp;Humidity;BMP_temperature;BMP_pressure;BME280_temperature;BME280_humidity;BME280_pressure;Samples;Min_cycle;Max_cycle;Signal;HPM_P1;HPM_P2
2021/10/26 00:00:51;;;;;;;24.63;13.52;;;13.80;99.90;;;14.06;91.51;101604.41;4842560;29;20073;-68
2021/10/26 00:03:20;;;;;;;25.50;14.45;;;13.80;99.90;;;14.14;91.42;101610.56;4842846;29;20568;-68
2021/10/26 00:05:48;;;;;;;26.40;13.77;;;13.80;99.90;;;14.07;91.64;101611.50;4844317;29;20057;-68
2021/10/26 00:08:17;;;;;;;26.60;13.38;;;13.80;99.90;;;14.02;92.07;101618.63;4844132;29;20078;-68
2021/10/26 00:10:45;;;;;;;25.05;13.18;;;13.70;99.90;;;14.02;92.43;101615.97;4842564;29;20110;-68
2021/10/26 00:13:15;;;;;;;25.83;13.60;;;13.70;99.90;;;14.01;92.53;101622.19;4843877;29;20106;-68
2021/10/26 00:15:43;;;;;;;27.33;13.98;;;13.70;99.90;;;14.08;92.40;101621.25;4842009;29;20058;-68
2021/10/26 00:18:13;;;;;;;25.73;13.80;;;13.70;99.90;;;14.09;92.12;101623.03;4843394;29;20042;-68
2021/10/26 00:20:41;;;;;;;31.50;14.00;;;13.70;99.90;;;14.04;91.72;101625.72;4843441;29;20077;-68
2021/10/26 00:23:10;;;;;;;26.17;13.57;;;13.70;99.90;;;14.02;92.03;101621.28;4843901;29;20042;-68
2021/10/26 00:25:41;;;;;;;20.50;12.57;;;13.70;99.90;;;14.03;92.07;101626.59;4843260;29;20080;-68
2021/10/26 00:28:12;;;;;;;22.60;12.55;;;13.70;99.90;;;14.09;91.90;101612.38;4843676;29;20053;-67
2021/10/26 00:30:42;;;;;;;24.27;12.55;;;13.70;99.90;;;14.05;91.73;101621.28;4843427;29;20421;-68
2021/10/26 00:33:13;;;;;;;20.25;12.38;;;13.70;99.90;;;14.04;91.73;101611.50;4843412;29;20037;-68
2021/10/26 00:35:42;;;;;;;23.97;13.03;;;13.80;99.90;;;14.21;91.21;101626.47;4843323;29;20054;-68
2021/10/26 00:38:10;;;;;;;21.85;11.82;;;13.80;99.90;;;14.19;91.24;101622.03;4842018;29;20112;-68
2021/10/26 00:40:38;;;;;;;24.15;12.35;;;13.90;99.90;;;14.28;91.21;101640.66;4842936;29;20042;-68
2021/10/26 00:43:08;;;;;;;28.23;13.23;;;13.90;99.90;;;14.28;90.63;101644.22;4842758;29;20526;-68
2021/10/26 00:45:37;;;;;;;22.45;11.77;;;13.90;99.90;;;14.28;90.85;101646.88;4843101;29;20420;-68
2021/10/26 00:48:06;;;;;;;20.75;11.77;;;13.90;99.90;;;14.32;90.33;101650.41;4842789;29;20065;-68
2021/10/26 00:50:37;;;;;;;18.92;11.75;;;13.90;99.90;;;14.34;90.56;101648.59;4842922;29;20133;-68
2021/10/26 00:53:09;;;;;;;19.27;10.73;;;14.00;99.90;;;14.35;90.00;101645.94;4842889;29;20045;-68
2021/10/26 00:55:38;;;;;;;25.08;12.32;;;14.00;99.90;;;14.33;89.86;101657.47;4841645;29;20489;-68
2021/10/26 00:58:06;;;;;;;23.35;11.73;;;14.00;99.90;;;14.36;89.84;101652.16;4841588;29;20042;-70
2021/10/26 01:00:35;;;;;;;17.90;10.10;;;14.00;99.90;;;14.37;89.84;101644.13;4841330;29;20476;-68
2021/10/26 01:03:07;;;;;;;18.30;9.95;;;14.00;99.90;;;14.37;89.87;101643.25;4842805;29;20060;-68
2021/10/26 01:05:40;;;;;;;20.80;10.27;;;14.10;99.90;;;14.20;89.72;101632.69;4841452;29;20449;-68
2021/10/26 01:08:09;;;;;;;18.30;10.75;;;14.10;99.90;;;14.34;89.82;101644.16;4842640;29;20054;-69
2021/10/26 01:10:38;;;;;;;23.70;10.82;;;14.00;99.90;;;14.33;89.57;101646.81;4841318;29;20045;-68
2021/10/26 01:13:07;;;;;;;17.50;10.70;;;14.00;99.90;;;14.35;89.49;101648.59;4842574;29;20049;-69
2021/10/26 01:15:37;;;;;;;21.90;10.77;;;14.00;99.90;;;14.33;89.50;101654.81;4841306;29;20465;-68
2021/10/26 01:18:24;;;;;;;22.23;11.32;;;14.00;99.90;;;14.25;89.27;101632.66;4841274;29;20054;-69
2021/10/26 01:20:55;;;;;;;22.45;10.75;;;14.00;99.90;;;14.33;89.43;101649.47;4841426;29;20057;-68
2021/10/26 01:23:26;;;;;;;19.33;10.20;;;14.00;99.90;;;14.30;89.36;101645.06;4842211;29;20408;-68
2021/10/26 01:25:56;;;;;;;20.92;10.32;;;14.00;99.90;;;14.13;88.99;101628.28;4841230;29;20053;-68
2021/10/26 01:28:25;;;;;;;21.05;9.95;;;13.90;99.90;;;14.27;89.13;101646.81;4840428;29;20491;-68
2021/10/26 01:30:55;;;;;;;21.38;10.57;;;14.00;99.90;;;14.24;89.34;101642.44;4840969;29;20073;-68
2021/10/26 01:33:42;;;;;;;20.50;9.73;;;13.90;99.90;;;14.29;89.43;101639.75;4842395;29;20064;-68
2021/10/26 01:36:22;;;;;;;22.50;11.25;;;13.90;99.90;;;14.28;89.08;101635.34;4841052;29;20050;-68
2021/10/26 01:38:53;;;;;;;20.45;10.07;;;14.00;99.90;;;14.27;89.06;101647.75;4840934;29;20054;-67
2021/10/26 01:41:22;;;;;;;19.10;9.50;;;13.90;99.90;;;14.27;89.21;101647.75;4840903;29;20046;-68
2021/10/26 01:43:54;;;;;;;16.52;9.48;;;13.90;99.90;;;14.25;88.86;101646.84;4842291;29;20118;-68
2021/10/26 01:46:23;;;;;;;;;;;13.90;99.90;;;14.27;88.87;101646.81;4841343;29;20427;-69
2021/10/26 01:48:52;;;;;;;21.65;11.18;;;14.00;99.90;;;14.24;88.84;101650.41;4840751;29;19940;-68
2021/10/26 01:51:21;;;;;;;22.98;10.55;;;13.90;99.90;;;14.23;88.59;101653.06;4842032;29;20073;-68
2021/10/26 01:53:50;;;;;;;22.05;11.25;;;13.90;99.90;;;14.22;88.45;101652.22;4842386;29;20146;-68
2021/10/26 01:56:22;;;;;;;20.63;10.88;;;13.90;99.90;;;14.16;88.50;101657.56;4840674;29;20053;-68
2021/10/26 01:59:05;;;;;;;23.13;12.25;;;13.80;99.90;;;14.13;88.19;101662.88;4840754;29;20046;-68
2021/10/26 02:01:41;;;;;;;22.92;11.73;;;13.80;99.90;;;14.09;88.68;101665.59;4841691;29;20084;-68
2021/10/26 02:04:23;;;;;;;22.45;12.25;;;13.70;99.90;;;14.06;88.76;101663.81;4840681;29;20061;-68
2021/10/26 02:06:53;;;;;;;26.00;12.45;;;13.70;99.90;;;14.00;89.00;101663.88;4840865;29;20056;-68
2021/10/26 02:09:22;;;;;;;;;;;13.70;99.90;;;13.82;89.08;101633.84;4842298;29;20054;-70
2021/10/26 02:11:50;;;;;;;25.45;12.90;;;13.70;99.90;;;14.01;89.35;101664.75;4840629;29;20008;-68
2021/10/26 02:14:19;;;;;;;23.73;12.10;;;13.70;99.90;;;13.95;89.32;101665.69;4840592;29;20061;-67
2021/10/26 02:16:47;;;;;;;28.55;12.95;;;13.60;99.90;;;13.92;89.49;101657.69;4840257;29;20050;-70
2021/10/26 02:19:17;;;;;;;27.13;13.65;;;13.60;99.90;;;13.99;89.80;101666.53;4840282;29;20118;-68
2021/10/26 02:21:46;;;;;;;23.15;12.50;;;13.60;99.90;;;13.95;89.53;101686.97;4840775;29;20102;-67
2021/10/26 02:24:16;;;;;;;27.02;12.32;;;13.60;99.90;;;13.99;89.69;101661.22;4840532;29;20522;-68
2021/10/26 02:26:45;;;;;;;26.20;12.17;;;13.60;99.90;;;13.95;89.62;101671.00;4840543;29;20061;-68
2021/10/26 02:29:13;;;;;;;24.13;11.85;;;13.60;99.90;;;13.94;89.85;101674.53;4840701;29;20749;-69
2021/10/26 02:31:44;;;;;;;27.73;12.52;;;13.60;99.90;;;13.99;89.67;101672.75;4840568;29;20077;-68
2021/10/26 02:34:12;;;;;;;25.77;12.68;;;13.60;99.90;;;13.96;89.60;101671.84;4840755;29;20050;-67
2021/10/26 02:36:41;;;;;;;31.52;13.38;;;13.60;99.90;;;13.97;89.56;101668.31;4840528;29;20046;-68
2021/10/26 02:39:09;;;;;;;23.40;11.70;;;13.60;99.90;;;13.99;89.45;101669.19;4842078;29;20046;-69
2021/10/26 02:41:39;;;;;;;23.23;12.15;;;13.60;99.90;;;13.94;89.12;101678.97;4845356;29;20106;-68
2021/10/26 02:44:08;;;;;;;25.23;12.48;;;13.60;99.90;;;13.95;89.21;101680.75;4844059;29;20077;-68
2021/10/26 02:46:38;;;;;;;27.00;11.35;;;13.60;99.90;;;13.92;89.38;101683.41;4844241;29;20050;-68
2021/10/26 02:49:07;;;;;;;23.08;10.77;;;13.60;99.90;;;13.95;89.46;101683.41;4843941;29;20415;-68
2021/10/26 02:51:35;;;;;;;23.13;11.63;;;13.60;99.90;;;13.97;88.96;101686.94;4844196;29;20230;-68
2021/10/26 02:54:05;;;;;;;26.27;11.88;;;13.60;99.90;;;13.96;89.08;101688.72;4828949;29;20049;-68
2021/10/26 02:56:34;;;;;;;24.50;11.13;;;13.60;99.90;;;13.96;88.74;101690.47;4844006;29;20046;-68
2021/10/26 02:59:04;;;;;;;26.10;11.80;;;13.60;99.90;;;13.95;88.81;101684.28;4843820;29;20041;-68
2021/10/26 03:01:34;;;;;;;21.73;10.38;;;13.60;99.90;;;13.96;88.76;101685.16;4843874;29;20069;-68
2021/10/26 03:04:05;;;;;;;23.17;11.02;;;13.60;99.90;;;13.95;88.94;101680.75;4845143;29;20046;-67
2021/10/26 03:06:33;;;;;;;24.60;11.77;;;13.60;99.90;;;13.93;88.42;101678.09;4844061;29;20058;-67
2021/10/26 03:09:01;;;;;;;20.73;10.13;;;13.60;99.90;;;13.96;88.33;101679.84;4845036;29;20454;-68
2021/10/26 03:11:33;;;;;;;24.40;10.73;;;13.60;99.90;;;13.96;88.49;101677.16;4843277;29;20045;-67
2021/10/26 03:14:05;;;;;;;24.67;10.68;;;13.60;99.90;;;13.97;88.31;101669.22;4844425;29;20058;-68
2021/10/26 03:16:33;;;;;;;24.05;11.50;;;13.60;99.90;;;13.96;88.10;101661.22;4843822;29;20054;-67
2021/10/26 03:19:05;;;;;;;27.10;10.60;;;13.60;99.90;;;13.92;88.30;101665.66;4843276;29;20050;-68
2021/10/26 03:21:37;;;;;;;23.58;11.02;;;13.60;99.90;;;13.94;88.16;101670.97;4843664;29;20122;-68
2021/10/26 03:24:06;;;;;;;20.40;9.95;;;13.60;99.90;;;14.00;88.03;101676.28;4845061;29;20046;-68
2021/10/26 03:26:37;;;;;;;26.75;10.15;;;13.60;99.90;;;13.97;88.02;101676.31;4843473;29;20041;-67
2021/10/26 03:29:10;;;;;;;23.67;10.57;;;13.70;99.90;;;14.00;87.73;101674.50;4842978;29;20457;-68
2021/10/26 03:31:40;;;;;;;20.55;9.35;;;13.70;99.90;;;13.96;87.64;101671.84;4843061;29;20058;-68
2021/10/26 03:34:27;;;;;;;26.40;9.45;;;13.60;99.90;;;13.97;87.97;101673.63;4844173;29;20061;-67
2021/10/26 03:37:00;;;;;;;23.58;9.63;;;13.60;99.90;;;14.01;87.65;101675.41;4843078;29;20050;-68
2021/10/26 03:39:30;;;;;;;20.55;10.00;;;13.60;99.90;;;13.91;87.50;101669.25;4843032;29;20049;-68
2021/10/26 03:41:59;;;;;;;22.30;9.35;;;13.60;99.90;;;13.84;88.09;101679.91;4843172;29;20053;-68
2021/10/26 03:44:29;;;;;;;26.10;10.07;;;13.50;99.90;;;13.85;88.04;101682.56;4843932;29;20050;-67
2021/10/26 03:46:57;;;;;;;23.97;10.47;;;13.50;99.90;;;13.74;88.43;101651.59;4842941;29;20057;-68
2021/10/26 03:49:29;;;;;;;23.38;9.98;;;13.50;99.90;;;13.81;88.62;101679.91;4843026;29;20091;-68
2021/10/26 03:51:57;;;;;;;27.80;10.63;;;13.50;99.90;;;13.79;88.71;101685.25;4841934;29;20144;-69
2021/10/26 03:54:26;;;;;;;26.92;10.93;;;13.50;99.90;;;13.74;89.30;101680.84;4842645;29;20141;-68
2021/10/26 03:56:55;;;;;;;27.05;11.23;;;13.50;99.90;;;13.71;89.09;101670.22;4842314;29;20073;-68
2021/10/26 03:59:29;;;;;;;26.52;10.13;;;13.40;99.90;;;13.73;88.85;101687.94;4842650;29;20118;-68
2021/10/26 04:02:03;;;;;;;24.95;10.32;;;13.40;99.90;;;13.59;88.77;101672.03;4842387;29;20069;-68
2021/10/26 04:04:32;;;;;;;24.02;11.02;;;13.40;99.90;;;13.70;88.78;101695.03;4842584;29;20122;-68
2021/10/26 04:07:04;;;;;;;21.92;10.93;;;13.40;99.90;;;13.76;89.07;101700.34;4842416;29;20054;-68
2021/10/26 04:09:44;;;;;;;23.85;11.15;;;13.40;99.90;;;13.81;88.93;101696.75;4843726;29;20046;-69
2021/10/26 04:12:24;;;;;;;23.45;11.75;;;13.40;99.90;;;13.83;89.26;101707.38;4842371;29;20421;-69
2021/10/26 04:14:55;;;;;;;23.40;12.30;;;13.50;99.90;;;13.71;88.78;101676.41;4842331;29;20082;-68
2021/10/26 04:17:27;;;;;;;25.17;12.18;;;13.60;99.90;;;13.80;88.79;101680.81;4842317;29;20106;-68
2021/10/26 04:19:57;;;;;;;29.35;12.85;;;13.60;99.90;;;13.95;88.47;101704.69;4842769;29;20054;-68
2021/10/26 04:22:27;;;;;;;23.08;12.50;;;13.60;99.90;;;13.93;88.55;101714.44;4842368;29;20053;-70
2021/10/26 04:24:56;;;;;;;23.55;13.02;;;13.60;99.90;;;13.95;88.17;101707.34;4842385;29;20057;-69
2021/10/26 04:27:26;;;;;;;22.67;12.68;;;13.60;99.90;;;13.92;87.84;101710.88;4842128;29;20136;-69
2021/10/26 04:29:54;;;;;;;26.00;13.70;;;13.60;99.90;;;13.90;87.78;101710.00;4841990;29;20050;-69
2021/10/26 04:32:23;;;;;;;23.08;12.15;;;13.60;99.90;;;13.85;87.95;101711.81;4843169;29;20117;-69
2021/10/26 04:35:05;;;;;;;26.48;14.45;;;13.60;99.90;;;13.82;88.00;101711.81;4841951;29;20126;-69
2021/10/26 04:37:35;;;;;;;25.58;13.02;;;13.50;99.90;;;13.83;88.00;101718.91;4841961;29;20484;-69
2021/10/26 04:40:05;;;;;;;25.03;12.97;;;13.50;99.90;;;13.86;87.93;101715.38;4842191;29;20054;-69
2021/10/26 04:42:36;;;;;;;22.55;12.90;;;13.50;99.90;;;13.85;88.03;101717.13;4841890;29;20295;-69
2021/10/26 04:45:08;;;;;;;24.23;12.70;;;13.50;99.90;;;13.84;88.14;101714.50;4842166;29;20413;-69
2021/10/26 04:47:37;;;;;;;26.27;13.45;;;13.50;99.90;;;13.82;88.05;101713.63;4841756;29;20053;-69
2021/10/26 04:50:08;;;;;;;29.80;13.02;;;13.50;99.90;;;13.81;88.15;101718.03;4841682;29;20049;-69
2021/10/26 04:52:37;;;;;;;29.52;13.32;;;13.50;99.90;;;13.83;88.23;101729.56;4841625;29;20053;-69
2021/10/26 04:55:07;;;;;;;24.02;13.00;;;13.50;99.90;;;13.83;87.84;101723.34;4842667;29;20046;-69
2021/10/26 04:57:36;;;;;;;27.33;13.27;;;13.50;99.90;;;13.73;87.82;101713.63;4841734;29;20058;-69
2021/10/26 05:00:27;;;;;;;22.13;12.75;;;13.50;99.90;;;13.83;87.83;101745.50;4842551;29;20125;-69
2021/10/26 05:02:57;;;;;;;22.48;12.05;;;13.50;99.90;;;13.79;87.82;101743.75;4841566;29;20054;-69
2021/10/26 05:05:27;;;;;;;28.52;12.82;;;13.50;99.90;;;13.78;87.69;101741.97;4841450;29;20054;-70
2021/10/26 05:07:55;;;;;;;21.07;13.10;;;13.40;99.90;;;13.73;87.97;101738.44;4843103;29;20076;-70
2021/10/26 05:10:24;;;;;;;28.33;13.15;;;13.40;99.90;;;13.71;87.70;101736.69;4841620;29;20069;-69
2021/10/26 05:12:52;;;;;;;27.45;12.75;;;13.30;99.90;;;13.65;87.81;101729.63;4841271;29;20054;-69
2021/10/26 05:15:42;;;;;;;23.77;12.73;;;13.30;99.90;;;13.61;87.68;101738.47;4842100;29;20054;-69
2021/10/26 05:18:28;;;;;;;25.60;12.82;;;13.20;99.90;;;13.49;87.78;101746.53;4842884;29;20109;-70
2021/10/26 05:21:33;;;;;;;26.08;14.27;;;13.20;99.90;;;13.38;88.06;101746.53;4842101;29;20061;-70
2021/10/26 05:24:24;;;;;;;27.75;13.73;;;13.10;99.90;;;13.36;88.24;101753.63;4842081;29;20144;-69
2021/10/26 05:27:01;;;;;;;21.45;13.32;;;13.00;99.90;;;13.36;88.33;101756.28;4841217;29;20077;-70
2021/10/26 05:29:30;;;;;;;24.90;13.55;;;13.00;99.90;;;13.31;87.92;101755.41;4841141;29;20053;-69
2021/10/26 05:31:58;;;;;;;23.67;13.70;;;13.00;99.90;;;13.30;88.14;101756.28;4842380;29;20053;-70
2021/10/26 05:34:27;;;;;;;20.23;12.45;;;12.90;99.90;;;13.28;88.35;101755.38;4842389;29;20054;-69
2021/10/26 05:36:57;;;;;;;24.83;13.45;;;12.90;99.90;;;13.26;88.02;101750.94;4842401;29;20040;-69
2021/10/26 05:39:25;;;;;;;22.35;11.90;;;12.90;99.90;;;13.23;88.47;101762.50;4842222;29;20489;-69
2021/10/26 05:41:54;;;;;;;30.40;13.07;;;12.90;99.90;;;13.21;88.64;101758.06;4842130;29;20073;-70
2021/10/26 05:44:22;;;;;;;25.02;12.65;;;12.90;99.90;;;13.27;88.68;101766.03;4842436;29;20106;-70
2021/10/26 05:46:51;;;;;;;23.63;12.88;;;12.90;99.90;;;13.24;88.64;101764.25;4841033;29;20568;-69
2021/10/26 05:49:19;;;;;;;26.33;12.43;;;13.00;99.90;;;13.30;88.77;101772.22;4841114;29;20082;-69
2021/10/26 05:51:48;;;;;;;26.95;13.25;;;13.00;99.90;;;13.27;88.53;101777.56;4840792;29;20083;-70
2021/10/26 05:54:17;;;;;;;26.40;12.63;;;13.00;99.90;;;13.30;88.33;101771.31;4842367;29;20125;-69
2021/10/26 05:56:46;;;;;;;21.53;12.73;;;13.00;99.90;;;13.32;88.42;101762.47;4842511;29;20103;-70
2021/10/26 05:59:14;;;;;;;26.60;12.52;;;13.00;99.90;;;13.32;88.43;101758.91;4841194;29;20337;-70
2021/10/26 06:01:43;;;;;;;18.98;12.32;;;13.00;99.90;;;13.34;88.45;101755.38;4840460;29;20144;-70
2021/10/26 06:04:11;;;;;;;25.13;12.55;;;13.00;99.90;;;13.31;88.32;101757.16;4841818;29;20572;-69
2021/10/26 06:06:40;;;;;;;26.02;12.85;;;13.00;99.90;;;13.22;88.23;101760.72;4840807;29;20050;-70
2021/10/26 06:09:09;;;;;;;20.83;12.48;;;13.00;99.90;;;13.15;87.77;101753.63;4840985;29;20457;-70
2021/10/26 06:11:39;;;;;;;26.52;13.23;;;13.00;99.90;;;13.13;88.09;101758.06;4840675;29;20080;-70
2021/10/26 06:14:08;;;;;;;23.95;12.20;;;12.90;99.90;;;13.12;88.04;101758.06;4842308;29;20050;-68
2021/10/26 06:16:39;;;;;;;24.75;12.75;;;12.90;99.90;;;13.14;88.01;101751.84;4844309;29;20178;-68
2021/10/26 06:19:09;;;;;;;25.27;12.30;;;12.90;99.90;;;13.07;88.30;101749.19;4844323;29;20049;-69
2021/10/26 06:21:39;;;;;;;24.70;12.02;;;12.80;99.90;;;12.97;88.34;101761.56;4844325;29;20049;-70
2021/10/26 06:24:08;;;;;;;21.45;11.65;;;12.70;99.90;;;12.82;88.70;101736.78;4844591;29;20156;-68
2021/10/26 06:26:36;;;;;;;18.70;11.52;;;12.70;99.90;;;12.99;88.45;101767.75;4844152;29;20054;-69
2021/10/26 06:29:07;;;;;;;19.25;11.00;;;12.70;99.90;;;12.98;88.49;101765.13;4843964;29;20137;-71
2021/10/26 06:31:49;;;;;;;17.17;11.35;;;12.70;99.90;;;12.99;88.29;101775.72;4844207;29;20130;-68
2021/10/26 06:34:17;;;;;;;24.45;11.75;;;12.70;99.90;;;12.37;87.97;101652.69;4843902;29;20050;-71
2021/10/26 06:36:46;;;;;;;16.95;10.93;;;12.70;99.90;;;13.01;88.10;101773.06;4844020;29;20454;-67
2021/10/26 06:39:15;;;;;;;20.20;11.60;;;12.70;99.90;;;12.98;88.18;101778.41;4845313;29;20054;-69
2021/10/26 06:41:43;;;;;;;18.15;11.40;;;12.70;99.90;;;13.03;88.07;101780.19;4845164;29;20132;-69
2021/10/26 06:44:36;;;;;;;21.25;11.35;;;12.70;99.90;;;13.09;88.24;101780.19;4835114;29;20058;-69
2021/10/26 06:47:37;;;;;;;19.30;10.88;;;12.80;99.90;;;13.11;88.06;101759.84;4853743;29;20158;-69
2021/10/26 06:50:24;;;;;;;19.80;11.18;;;12.80;99.90;;;13.26;87.96;101780.19;4844856;29;20138;-70
2021/10/26 06:53:11;;;;;;;22.52;11.52;;;13.00;99.90;;;13.26;88.18;101781.06;4844827;29;20548;-69
2021/10/26 06:56:16;;;;;;;20.75;11.98;;;13.00;99.90;;;13.45;87.72;101780.16;4824146;29;20173;-70
2021/10/26 06:59:03;;;;;;;17.95;12.10;;;13.10;99.90;;;13.66;87.27;101795.22;4843654;29;20123;-70
2021/10/26 07:02:11;;;;;;;26.08;11.48;;;13.30;99.90;;;13.83;87.49;101789.84;4843513;29;20413;-70
2021/10/26 07:05:07;;;;;;;24.50;12.23;;;13.50;99.90;;;14.05;86.83;101795.06;4844686;29;20397;-69
2021/10/26 07:07:58;;;;;;;25.95;12.23;;;13.70;99.90;;;14.30;86.47;101788.78;4843192;29;20110;-69
2021/10/26 07:10:27;;;;;;;18.20;11.65;;;14.00;99.90;;;14.54;85.91;101801.09;4843422;29;20118;-70
2021/10/26 07:13:11;;;;;;;22.55;12.50;;;14.20;99.90;;;14.81;85.68;101800.03;4843269;29;20057;-70
2021/10/26 07:15:39;;;;;;;22.08;11.73;;;14.50;99.90;;;14.97;84.97;101805.25;4843062;29;20050;-70
2021/10/26 07:18:10;;;;;;;22.25;12.18;;;14.70;99.90;;;15.24;84.28;101813.03;4844363;29;20406;-69
2021/10/26 07:20:38;;;;;;;21.23;11.70;;;15.00;99.90;;;15.50;83.31;101817.28;4844593;29;20114;-69
2021/10/26 07:23:35;;;;;;;20.35;11.80;;;15.20;99.90;;;15.78;82.13;101818.75;4851443;29;20057;-69
2021/10/26 07:26:13;;;;;;;23.75;11.75;;;15.50;99.90;;;15.97;80.97;101818.53;4843399;29;20141;-69
2021/10/26 07:28:43;;;;;;;19.25;10.25;;;15.70;99.90;;;16.21;80.15;101818.28;4843103;29;20137;-69
2021/10/26 07:31:11;;;;;;;19.13;9.45;;;15.90;99.90;;;16.33;79.03;101821.69;4843346;29;20042;-70
2021/10/26 07:33:41;;;;;;;20.70;9.77;;;16.10;99.90;;;16.24;77.99;101833.34;4842705;29;20061;-69
2021/10/26 07:36:11;;;;;;;17.20;9.70;;;16.00;99.90;;;16.11;78.19;101837.06;4843255;29;20054;-69
2021/10/26 07:38:40;;;;;;;18.20;10.07;;;15.90;99.90;;;16.09;78.08;101831.75;4844265;29;20050;-69
2021/10/26 07:41:10;;;;;;;19.90;9.50;;;15.90;99.90;;;15.96;78.36;101832.81;4842941;29;20385;-69
2021/10/26 07:44:17;;;;;;;17.25;9.35;;;15.70;99.90;;;15.85;78.67;101832.00;4878683;29;20143;-69
2021/10/26 07:46:48;;;;;;;18.80;9.13;;;15.60;99.90;;;15.74;79.07;101825.91;4878771;29;20105;-69
2021/10/26 07:49:22;;;;;;;19.25;9.38;;;15.50;99.90;;;15.53;79.54;101817.22;4859145;29;20250;-69
2021/10/26 07:51:52;;;;;;;17.70;8.63;;;15.40;99.90;;;15.43;79.83;101812.91;4842639;29;20065;-69
2021/10/26 07:54:22;;;;;;;18.42;8.45;;;15.30;99.90;;;15.44;80.39;101820.88;4842885;29;20054;-69
2021/10/26 07:57:06;;;;;;;21.50;9.07;;;15.20;99.90;;;15.35;80.86;101836.91;4842611;29;20058;-69
2021/10/26 07:59:35;;;;;;;25.47;9.00;;;15.10;99.90;;;15.21;81.49;101834.34;4842901;29;20058;-70
2021/10/26 08:02:04;;;;;;;18.35;8.93;;;15.00;99.90;;;15.18;81.79;101828.16;4842110;29;20178;-69
2021/10/26 08:04:55;;;;;;;20.92;10.00;;;14.90;99.90;;;15.07;82.35;101830.94;4843611;29;20130;-69
2021/10/26 08:07:25;;;;;;;21.50;8.88;;;14.80;99.90;;;14.99;82.96;101823.88;4843758;29;20065;-70
2021/10/26 08:09:57;;;;;;;18.30;9.25;;;14.70;99.90;;;15.00;83.42;101823.00;4842294;29;20129;-69
2021/10/26 08:12:28;;;;;;;15.30;8.52;;;14.70;99.90;;;14.89;83.92;101811.50;4842312;29;20057;-70
2021/10/26 08:14:57;;;;;;;16.02;8.10;;;14.60;99.90;;;14.35;84.22;101735.53;4841950;29;20057;-69
2021/10/26 08:17:26;;;;;;;22.05;9.35;;;14.60;99.90;;;14.85;84.74;101826.63;4842188;29;20050;-69
2021/10/26 08:19:56;;;;;;;19.77;8.93;;;14.60;99.90;;;14.73;84.72;101829.38;4843207;29;20450;-69
2021/10/26 08:22:26;;;;;;;18.42;8.88;;;14.50;99.90;;;14.79;85.37;101842.66;4843500;29;20061;-69
2021/10/26 08:24:59;;;;;;;17.67;9.20;;;14.50;99.90;;;14.79;85.31;101824.00;4842111;29;20050;-69
2021/10/26 08:27:28;;;;;;;16.67;8.77;;;14.50;99.90;;;14.68;85.52;101823.19;4842156;29;20156;-68
2021/10/26 08:30:07;;;;;;;16.08;9.48;;;14.50;99.90;;;14.66;86.07;101838.31;4841980;29;20493;-69
2021/10/26 08:35:30;;;;;;;18.60;10.43;;;14.30;99.90;;;14.47;87.45;101823.31;4842008;29;20470;-68
2021/10/26 08:38:03;;;;;;;18.40;9.88;;;14.20;99.90;;;14.45;87.58;101828.66;4841765;29;20470;-67
2021/10/26 08:40:46;;;;;;;15.75;9.93;;;14.20;99.90;;;14.41;87.86;101818.91;4842011;29;20046;-68
2021/10/26 08:43:17;;;;;;;19.15;10.45;;;14.20;99.90;;;14.37;88.22;101818.94;4841943;29;20384;-68
2021/10/26 08:45:48;;;;;;;20.00;11.35;;;14.10;99.90;;;14.40;88.21;101832.25;4841895;29;20050;-68
2021/10/26 08:48:21;;;;;;;22.42;11.43;;;14.10;99.90;;;14.49;88.36;101824.19;4841546;29;20106;-68
2021/10/26 08:50:57;;;;;;;20.85;11.95;;;14.20;99.90;;;14.52;88.43;101832.16;4843143;29;20077;-68
2021/10/26 08:53:34;;;;;;;18.50;11.60;;;14.20;99.90;;;14.49;88.46;101821.53;4841704;29;20099;-67
2021/10/26 08:56:34;;;;;;;20.70;12.13;;;14.30;99.90;;;14.51;88.78;101821.53;4841984;29;20061;-73
2021/10/26 08:59:25;;;;;;;22.85;12.05;;;14.30;99.90;;;14.50;88.54;101825.94;4842522;29;20122;-74
2021/10/26 09:01:58;;;;;;;23.98;12.10;;;14.30;99.90;;;14.46;88.89;101821.53;4841483;29;20050;-74
2021/10/26 09:04:31;;;;;;;20.23;11.02;;;14.30;99.90;;;14.63;88.76;101822.34;4841698;29;20148;-68
2021/10/26 09:07:05;;;;;;;22.40;10.73;;;14.40;99.90;;;14.63;88.97;101832.13;4841620;29;20573;-70
2021/10/26 09:09:37;;;;;;;19.55;10.95;;;14.40;99.90;;;14.65;89.08;101831.22;4841989;29;20064;-69
2021/10/26 09:18:42;;;;;;;21.30;12.32;;;14.10;99.90;;;14.20;89.81;101831.38;4849759;29;20137;-70
2021/10/26 09:21:28;;;;;;;26.25;12.77;;;14.00;99.90;;;14.21;90.28;101826.06;4841360;29;20064;-69
2021/10/26 09:24:02;;;;;;;24.73;12.65;;;14.00;99.90;;;14.18;90.26;101836.72;4841326;29;20056;-70
2021/10/26 09:26:47;;;;;;;21.17;12.38;;;13.90;99.90;;;14.12;90.56;101826.09;4842510;29;20046;-70
2021/10/26 09:29:18;;;;;;;21.85;13.05;;;14.00;99.90;;;14.15;91.36;101827.88;4842292;29;20519;-70
2021/10/26 09:31:47;;;;;;;21.73;13.00;;;13.90;99.90;;;14.01;91.27;101813.72;4841255;29;20060;-70
2021/10/26 09:34:20;;;;;;;23.00;13.23;;;13.90;99.90;;;14.15;91.49;101830.53;4842418;29;20050;-70
2021/10/26 09:36:52;;;;;;;23.95;12.88;;;13.90;99.90;;;14.10;91.87;101834.97;4842419;29;20041;-70
2021/10/26 09:39:26;;;;;;;23.77;13.52;;;13.90;99.90;;;14.16;92.03;101834.94;4842312;29;20073;-70
2021/10/26 09:42:10;;;;;;;22.65;12.65;;;13.90;99.90;;;14.12;92.11;101825.22;4842032;29;20050;-70
2021/10/26 09:44:50;;;;;;;19.27;11.27;;;13.90;99.90;;;14.12;92.30;101820.78;4840740;29;20501;-72
2021/10/26 09:47:24;;;;;;;18.17;12.10;;;13.90;99.90;;;14.14;92.54;101826.97;4842482;29;20061;-68
2021/10/26 09:49:56;;;;;;;24.88;12.85;;;13.90;99.90;;;14.17;91.96;101820.75;4841409;29;20046;-68
2021/10/26 09:52:28;;;;;;;19.10;12.07;;;13.90;99.90;;;14.21;91.97;101823.41;4842128;29;20437;-70
2021/10/26 09:55:13;;;;;;;24.75;12.48;;;13.90;99.90;;;14.20;92.52;101810.09;4841967;29;20056;-68
2021/10/26 09:57:46;;;;;;;16.40;12.65;;;14.00;99.90;;;14.30;92.29;101807.41;4842328;29;20049;-69
2021/10/26 10:00:24;;;;;;;18.38;11.60;;;14.00;99.90;;;14.43;92.29;101802.94;4841798;29;20117;-69
2021/10/26 10:03:03;;;;;;;18.75;11.57;;;14.20;99.90;;;14.52;92.15;101799.34;4842093;29;20399;-69
2021/10/26 10:05:37;;;;;;;18.38;10.40;;;14.30;99.90;;;14.46;91.70;101793.13;4841895;29;20049;-69
2021/10/26 10:08:20;;;;;;;18.23;11.00;;;14.30;99.90;;;14.40;91.86;101800.28;4842235;29;20350;-70
2021/10/26 10:10:52;;;;;;;18.38;10.88;;;14.20;99.90;;;14.59;92.82;101807.28;4841612;29;20508;-69
2021/10/26 10:13:22;;;;;;;20.45;11.15;;;14.30;99.90;;;14.65;92.53;101811.69;4841730;29;20107;-68
2021/10/26 10:15:51;;;;;;;21.48;11.52;;;14.40;99.90;;;14.72;92.14;101819.63;4841508;29;20120;-69
2021/10/26 10:18:22;;;;;;;18.75;10.98;;;14.50;99.90;;;14.79;91.48;101816.03;4841770;29;20094;-69
2021/10/26 10:20:55;;;;;;;18.33;11.88;;;14.50;99.90;;;15.02;91.34;101810.56;4841848;29;20056;-68
2021/10/26 10:23:27;;;;;;;20.35;10.63;;;14.70;99.90;;;15.13;89.54;101833.56;4841798;29;20049;-69
2021/10/26 10:25:59;;;;;;;17.83;10.77;;;14.90;99.90;;;15.30;88.92;101820.97;4841539;29;20461;-69
2021/10/26 10:28:30;;;;;;;19.27;11.10;;;15.00;99.90;;;15.44;88.75;101817.31;4841825;29;20046;-69
2021/10/26 10:31:00;;;;;;;22.80;11.60;;;15.20;99.90;;;14.96;88.29;101717.34;4841724;29;20057;-68
2021/10/26 10:33:29;;;;;;;22.75;11.52;;;15.30;99.90;;;15.62;87.44;101814.50;4841446;29;20049;-69